sensor_id;sensor_type;location;lat;lon;timestamp;temperature;humidity
16032;DHT22;8120;48.308;8.914;2023-04-15T00:02:18;-0.10;82.70
16032;DHT22;8120;48.308;8.914;2023-04-15T00:04:47;-0.10;82.40
16032;DHT22;8120;48.308;8.914;2023-04-15T00:07:15;-0.20;82.10
16032;DHT22;8120;48.308;8.914;2023-04-15T00:09:43;-0.30;82.30
16032;DHT22;8120;48.308;8.914;2023-04-15T00:12:11;-0.30;82.50
16032;DHT22;8120;48.308;8.914;2023-04-15T00:14:40;-0.40;83.00
16032;DHT22;8120;48.308;8.914;2023-04-15T00:17:09;-0.40;83.60
16032;DHT22;8120;48.308;8.914;2023-04-15T00:19:36;-0.40;83.60
16032;DHT22;8120;48.308;8.914;2023-04-15T00:22:04;-0.40;83.40
16032;DHT22;8120;48.308;8.914;2023-04-15T00:24:32;-0.40;83.90
16032;DHT22;8120;48.308;8.914;2023-04-15T00:27:00;-0.30;83.80
16032;DHT22;8120;48.308;8.914;2023-04-15T00:29:29;-0.30;83.10
16032;DHT22;8120;48.308;8.914;2023-04-15T00:31:58;-0.40;83.70
16032;DHT22;8120;48.308;8.914;2023-04-15T00:34:26;-0.40;83.10
16032;DHT22;8120;48.308;8.914;2023-04-15T00:36:54;-0.50;83.20
16032;DHT22;8120;48.308;8.914;2023-04-15T00:39:22;-0.60;82.90
16032;DHT22;8120;48.308;8.914;2023-04-15T00:41:50;-0.60;83.70
16032;DHT22;8120;48.308;8.914;2023-04-15T00:44:18;-0.60;85.00
16032;DHT22;8120;48.308;8.914;2023-04-15T00:46:50;-0.50;84.70
16032;DHT22;8120;48.308;8.914;2023-04-15T00:49:20;-0.50;84.70
16032;DHT22;8120;48.308;8.914;2023-04-15T00:51:48;-0.60;84.30
16032;DHT22;8120;48.308;8.914;2023-04-15T00:54:16;-0.70;84.20
16032;DHT22;8120;48.308;8.914;2023-04-15T00:56:44;-0.80;84.10
16032;DHT22;8120;48.308;8.914;2023-04-15T00:59:13;-0.80;84.90
16032;DHT22;8120;48.308;8.914;2023-04-15T01:01:43;-0.80;85.10
16032;DHT22;8120;48.308;8.914;2023-04-15T01:04:11;-0.80;85.60
16032;DHT22;8120;48.308;8.914;2023-04-15T01:06:42;-0.80;85.80
16032;DHT22;8120;48.308;8.914;2023-04-15T01:09:10;-0.80;85.80
16032;DHT22;8120;48.308;8.914;2023-04-15T01:11:38;-0.80;85.60
16032;DHT22;8120;48.308;8.914;2023-04-15T01:14:06;-0.80;85.20
16032;DHT22;8120;48.308;8.914;2023-04-15T01:16:35;-0.90;85.50
16032;DHT22;8120;48.308;8.914;2023-04-15T01:19:05;-0.80;86.30
16032;DHT22;8120;48.308;8.914;2023-04-15T01:21:35;-0.80;85.60
16032;DHT22;8120;48.308;8.914;2023-04-15T01:24:07;-0.80;86.40
16032;DHT22;8120;48.308;8.914;2023-04-15T01:26:38;-0.70;86.60
16032;DHT22;8120;48.308;8.914;2023-04-15T01:29:06;-0.70;86.10
16032;DHT22;8120;48.308;8.914;2023-04-15T01:31:34;-0.60;86.70
16032;DHT22;8120;48.308;8.914;2023-04-15T01:34:03;-0.60;86.70
16032;DHT22;8120;48.308;8.914;2023-04-15T01:36:31;-0.70;85.80
16032;DHT22;8120;48.308;8.914;2023-04-15T01:38:59;-0.80;85.70
16032;DHT22;8120;48.308;8.914;2023-04-15T01:41:28;-0.80;87.00
16032;DHT22;8120;48.308;8.914;2023-04-15T01:43:57;-0.70;86.60
16032;DHT22;8120;48.308;8.914;2023-04-15T01:46:25;-0.80;86.20
16032;DHT22;8120;48.308;8.914;2023-04-15T01:48:53;-0.90;86.00
16032;DHT22;8120;48.308;8.914;2023-04-15T01:51:21;-0.90;86.00
16032;DHT22;8120;48.308;8.914;2023-04-15T01:53:49;-1.00;85.80
16032;DHT22;8120;48.308;8.914;2023-04-15T01:56:18;-1.10;85.50
16032;DHT22;8120;48.308;8.914;2023-04-15T01:58:46;-1.20;85.80
16032;DHT22;8120;48.308;8.914;2023-04-15T02:01:15;-1.20;86.70
16032;DHT22;8120;48.308;8.914;2023-04-15T02:03:45;-1.10;87.50
16032;DHT22;8120;48.308;8.914;2023-04-15T02:06:14;-1.10;87.10
16032;DHT22;8120;48.308;8.914;2023-04-15T02:08:41;-1.10;87.40
16032;DHT22;8120;48.308;8.914;2023-04-15T02:11:09;-1.10;87.00
16032;DHT22;8120;48.308;8.914;2023-04-15T02:13:37;-1.20;87.10
16032;DHT22;8120;48.308;8.914;2023-04-15T02:16:16;-1.20;87.20
16032;DHT22;8120;48.308;8.914;2023-04-15T02:18:44;-1.20;86.90
16032;DHT22;8120;48.308;8.914;2023-04-15T02:21:12;-1.20;86.70
16032;DHT22;8120;48.308;8.914;2023-04-15T02:23:40;-1.30;86.30
16032;DHT22;8120;48.308;8.914;2023-04-15T02:26:09;-1.30;87.30
16032;DHT22;8120;48.308;8.914;2023-04-15T02:28:37;-1.40;87.10
16032;DHT22;8120;48.308;8.914;2023-04-15T02:31:05;-1.40;88.00
16032;DHT22;8120;48.308;8.914;2023-04-15T02:33:35;-1.30;88.40
16032;DHT22;8120;48.308;8.914;2023-04-15T02:36:04;-1.30;88.40
16032;DHT22;8120;48.308;8.914;2023-04-15T02:38:32;-1.40;87.80
16032;DHT22;8120;48.308;8.914;2023-04-15T02:40:59;-1.40;87.80
16032;DHT22;8120;48.308;8.914;2023-04-15T02:43:27;-1.40;88.00
16032;DHT22;8120;48.308;8.914;2023-04-15T02:45:56;-1.20;89.60
16032;DHT22;8120;48.308;8.914;2023-04-15T02:48:24;-1.10;89.50
16032;DHT22;8120;48.308;8.914;2023-04-15T02:50:53;-1.10;88.40
16032;DHT22;8120;48.308;8.914;2023-04-15T02:53:21;-1.30;87.30
16032;DHT22;8120;48.308;8.914;2023-04-15T02:55:49;-1.40;88.00
16032;DHT22;8120;48.308;8.914;2023-04-15T02:58:17;-1.50;88.50
16032;DHT22;8120;48.308;8.914;2023-04-15T03:00:44;-1.50;88.60
16032;DHT22;8120;48.308;8.914;2023-04-15T03:03:12;-1.70;88.20
16032;DHT22;8120;48.308;8.914;2023-04-15T03:05:41;-1.70;88.40
16032;DHT22;8120;48.308;8.914;2023-04-15T03:08:10;-1.80;88.60
16032;DHT22;8120;48.308;8.914;2023-04-15T03:10:38;-1.70;89.80
16032;DHT22;8120;48.308;8.914;2023-04-15T03:13:06;-1.80;89.40
16032;DHT22;8120;48.308;8.914;2023-04-15T03:15:34;-1.80;90.40
16032;DHT22;8120;48.308;8.914;2023-04-15T03:18:02;-1.80;90.30
16032;DHT22;8120;48.308;8.914;2023-04-15T03:20:30;-1.80;90.10
16032;DHT22;8120;48.308;8.914;2023-04-15T03:22:58;-1.90;90.60
16032;DHT22;8120;48.308;8.914;2023-04-15T03:25:27;-1.90;91.00
16032;DHT22;8120;48.308;8.914;2023-04-15T03:27:55;-1.90;90.70
16032;DHT22;8120;48.308;8.914;2023-04-15T03:30:23;-1.90;91.40
16032;DHT22;8120;48.308;8.914;2023-04-15T03:32:51;-1.80;92.20
16032;DHT22;8120;48.308;8.914;2023-04-15T03:35:19;-1.80;92.10
16032;DHT22;8120;48.308;8.914;2023-04-15T03:37:47;-1.70;92.10
16032;DHT22;8120;48.308;8.914;2023-04-15T03:40:15;-1.70;91.90
16032;DHT22;8120;48.308;8.914;2023-04-15T03:42:44;-1.80;91.40
16032;DHT22;8120;48.308;8.914;2023-04-15T03:45:12;-1.80;91.20
16032;DHT22;8120;48.308;8.914;2023-04-15T03:47:40;-1.90;91.00
16032;DHT22;8120;48.308;8.914;2023-04-15T03:50:12;-1.90;90.80
16032;DHT22;8120;48.308;8.914;2023-04-15T03:52:40;-1.90;91.10
16032;DHT22;8120;48.308;8.914;2023-04-15T03:55:08;-2.00;90.60
16032;DHT22;8120;48.308;8.914;2023-04-15T03:57:36;-2.00;90.90
16032;DHT22;8120;48.308;8.914;2023-04-15T04:00:08;-2.00;91.90
16032;DHT22;8120;48.308;8.914;2023-04-15T04:02:36;-1.70;93.90
16032;DHT22;8120;48.308;8.914;2023-04-15T04:05:04;-1.60;94.10
16032;DHT22;8120;48.308;8.914;2023-04-15T04:07:32;-1.60;93.00
16032;DHT22;8120;48.308;8.914;2023-04-15T04:10:01;-1.70;92.50
16032;DHT22;8120;48.308;8.914;2023-04-15T04:12:29;-1.90;91.90
16032;DHT22;8120;48.308;8.914;2023-04-15T04:14:57;-1.90;91.90
16032;DHT22;8120;48.308;8.914;2023-04-15T04:17:26;-2.00;91.60
16032;DHT22;8120;48.308;8.914;2023-04-15T04:19:54;-2.10;91.90
16032;DHT22;8120;48.308;8.914;2023-04-15T04:22:22;-2.20;91.30
16032;DHT22;8120;48.308;8.914;2023-04-15T04:24:50;-2.30;91.00
16032;DHT22;8120;48.308;8.914;2023-04-15T04:27:18;-2.40;91.20
16032;DHT22;8120;48.308;8.914;2023-04-15T04:29:46;-2.30;91.90
16032;DHT22;8120;48.308;8.914;2023-04-15T04:32:15;-2.30;92.10
16032;DHT22;8120;48.308;8.914;2023-04-15T04:34:44;-2.30;92.70
16032;DHT22;8120;48.308;8.914;2023-04-15T04:37:12;-2.20;92.90
16032;DHT22;8120;48.308;8.914;2023-04-15T04:39:40;-2.20;93.20
16032;DHT22;8120;48.308;8.914;2023-04-15T04:42:08;-2.10;93.20
16032;DHT22;8120;48.308;8.914;2023-04-15T04:44:36;-2.10;92.90
16032;DHT22;8120;48.308;8.914;2023-04-15T04:47:04;-2.10;92.90
16032;DHT22;8120;48.308;8.914;2023-04-15T04:49:33;-2.10;93.10
16032;DHT22;8120;48.308;8.914;2023-04-15T04:52:02;-2.10;92.60
16032;DHT22;8120;48.308;8.914;2023-04-15T04:54:30;-1.90;93.80
16032;DHT22;8120;48.308;8.914;2023-04-15T04:56:58;-1.60;95.10
16032;DHT22;8120;48.308;8.914;2023-04-15T04:59:26;-1.50;94.10
16032;DHT22;8120;48.308;8.914;2023-04-15T05:01:54;-1.50;93.30
16032;DHT22;8120;48.308;8.914;2023-04-15T05:04:22;-1.30;93.30
16032;DHT22;8120;48.308;8.914;2023-04-15T05:06:49;-1.10;92.40
16032;DHT22;8120;48.308;8.914;2023-04-15T05:09:19;-0.90;90.10
16032;DHT22;8120;48.308;8.914;2023-04-15T05:11:46;-0.80;88.30
16032;DHT22;8120;48.308;8.914;2023-04-15T05:14:14;-0.70;86.80
16032;DHT22;8120;48.308;8.914;2023-04-15T05:16:42;-0.60;86.50
16032;DHT22;8120;48.308;8.914;2023-04-15T05:19:10;-0.30;86.50
16032;DHT22;8120;48.308;8.914;2023-04-15T05:21:38;0.00;84.60
16032;DHT22;8120;48.308;8.914;2023-04-15T05:24:06;0.70;85.60
16032;DHT22;8120;48.308;8.914;2023-04-15T05:26:35;1.30;82.30
16032;DHT22;8120;48.308;8.914;2023-04-15T05:29:03;1.70;79.40
16032;DHT22;8120;48.308;8.914;2023-04-15T05:31:31;2.00;77.00
16032;DHT22;8120;48.308;8.914;2023-04-15T05:33:59;2.20;75.40
16032;DHT22;8120;48.308;8.914;2023-04-15T05:36:27;2.10;74.70
16032;DHT22;8120;48.308;8.914;2023-04-15T05:38:55;2.40;77.60
16032;DHT22;8120;48.308;8.914;2023-04-15T05:41:23;2.80;73.00
16032;DHT22;8120;48.308;8.914;2023-04-15T05:43:52;2.80;72.80
16032;DHT22;8120;48.308;8.914;2023-04-15T05:46:20;2.90;74.60
16032;DHT22;8120;48.308;8.914;2023-04-15T05:48:48;2.80;74.00
16032;DHT22;8120;48.308;8.914;2023-04-15T05:51:16;2.90;75.50
16032;DHT22;8120;48.308;8.914;2023-04-15T05:53:44;3.10;75.60
16032;DHT22;8120;48.308;8.914;2023-04-15T05:56:12;3.40;74.40
16032;DHT22;8120;48.308;8.914;2023-04-15T05:58:40;3.40;73.40
16032;DHT22;8120;48.308;8.914;2023-04-15T06:01:09;3.10;74.20
16032;DHT22;8120;48.308;8.914;2023-04-15T06:03:40;3.00;76.80
16032;DHT22;8120;48.308;8.914;2023-04-15T06:06:08;3.20;74.70
16032;DHT22;8120;48.308;8.914;2023-04-15T06:08:36;3.40;75.70
16032;DHT22;8120;48.308;8.914;2023-04-15T06:11:04;4.20;72.40
16032;DHT22;8120;48.308;8.914;2023-04-15T06:13:32;5.00;69.80
16032;DHT22;8120;48.308;8.914;2023-04-15T06:16:00;5.50;67.70
16032;DHT22;8120;48.308;8.914;2023-04-15T06:18:29;5.80;65.80
16032;DHT22;8120;48.308;8.914;2023-04-15T06:20:57;5.20;67.20
16032;DHT22;8120;48.308;8.914;2023-04-15T06:23:25;4.70;69.60
16032;DHT22;8120;48.308;8.914;2023-04-15T06:25:53;4.10;71.50
16032;DHT22;8120;48.308;8.914;2023-04-15T06:28:21;4.30;72.90
16032;DHT22;8120;48.308;8.914;2023-04-15T06:30:49;4.70;69.90
16032;DHT22;8120;48.308;8.914;2023-04-15T06:33:17;5.40;68.50
16032;DHT22;8120;48.308;8.914;2023-04-15T06:35:46;6.00;66.10
16032;DHT22;8120;48.308;8.914;2023-04-15T06:38:15;6.40;65.20
16032;DHT22;8120;48.308;8.914;2023-04-15T06:40:43;6.50;63.90
16032;DHT22;8120;48.308;8.914;2023-04-15T06:43:11;6.10;63.20
16032;DHT22;8120;48.308;8.914;2023-04-15T06:45:38;5.50;66.50
16032;DHT22;8120;48.308;8.914;2023-04-15T06:48:06;5.70;66.10
16032;DHT22;8120;48.308;8.914;2023-04-15T06:50:34;6.00;65.30
16032;DHT22;8120;48.308;8.914;2023-04-15T06:53:03;6.30;64.30
16032;DHT22;8120;48.308;8.914;2023-04-15T06:55:32;6.50;63.60
16032;DHT22;8120;48.308;8.914;2023-04-15T06:58:00;6.80;63.50
16032;DHT22;8120;48.308;8.914;2023-04-15T07:00:27;6.90;63.50
16032;DHT22;8120;48.308;8.914;2023-04-15T07:02:56;6.90;63.30
16032;DHT22;8120;48.308;8.914;2023-04-15T07:05:23;7.20;62.70
16032;DHT22;8120;48.308;8.914;2023-04-15T07:07:51;7.40;62.00
16032;DHT22;8120;48.308;8.914;2023-04-15T07:10:21;7.80;60.80
16032;DHT22;8120;48.308;8.914;2023-04-15T07:12:51;8.10;60.00
16032;DHT22;8120;48.308;8.914;2023-04-15T07:15:19;8.40;60.20
16032;DHT22;8120;48.308;8.914;2023-04-15T07:17:47;8.50;58.80
16032;DHT22;8120;48.308;8.914;2023-04-15T07:20:15;8.20;59.90
16032;DHT22;8120;48.308;8.914;2023-04-15T07:22:43;7.90;59.70
16032;DHT22;8120;48.308;8.914;2023-04-15T07:25:11;8.10;60.20
16032;DHT22;8120;48.308;8.914;2023-04-15T07:27:40;8.60;59.60
16032;DHT22;8120;48.308;8.914;2023-04-15T07:30:09;8.60;58.60
16032;DHT22;8120;48.308;8.914;2023-04-15T07:32:38;8.50;59.40
16032;DHT22;8120;48.308;8.914;2023-04-15T07:35:06;8.70;57.80
16032;DHT22;8120;48.308;8.914;2023-04-15T07:37:35;8.60;58.40
16032;DHT22;8120;48.308;8.914;2023-04-15T07:40:03;8.60;59.20
16032;DHT22;8120;48.308;8.914;2023-04-15T07:42:33;8.40;60.50
16032;DHT22;8120;48.308;8.914;2023-04-15T07:45:02;8.30;60.80
16032;DHT22;8120;48.308;8.914;2023-04-15T07:47:30;8.00;61.90
16032;DHT22;8120;48.308;8.914;2023-04-15T07:49:58;7.40;64.60
16032;DHT22;8120;48.308;8.914;2023-04-15T07:52:27;7.70;65.90
16032;DHT22;8120;48.308;8.914;2023-04-15T07:54:55;8.10;65.20
16032;DHT22;8120;48.308;8.914;2023-04-15T07:57:23;8.30;64.30
16032;DHT22;8120;48.308;8.914;2023-04-15T07:59:51;8.10;66.20
16032;DHT22;8120;48.308;8.914;2023-04-15T08:02:21;8.10;64.50
16032;DHT22;8120;48.308;8.914;2023-04-15T08:04:49;8.50;63.90
16032;DHT22;8120;48.308;8.914;2023-04-15T08:07:17;8.70;62.40
16032;DHT22;8120;48.308;8.914;2023-04-15T08:09:45;8.20;64.60
16032;DHT22;8120;48.308;8.914;2023-04-15T08:12:13;8.50;64.50
16032;DHT22;8120;48.308;8.914;2023-04-15T08:14:41;8.60;63.80
16032;DHT22;8120;48.308;8.914;2023-04-15T08:17:09;8.60;62.50
16032;DHT22;8120;48.308;8.914;2023-04-15T08:19:39;8.90;61.60
16032;DHT22;8120;48.308;8.914;2023-04-15T08:22:08;9.40;60.50
16032;DHT22;8120;48.308;8.914;2023-04-15T08:24:43;9.50;60.10
16032;DHT22;8120;48.308;8.914;2023-04-15T08:27:11;9.30;60.40
16032;DHT22;8120;48.308;8.914;2023-04-15T08:29:39;9.40;60.00
16032;DHT22;8120;48.308;8.914;2023-04-15T08:32:07;9.60;58.00
16032;DHT22;8120;48.308;8.914;2023-04-15T08:34:36;9.20;58.90
16032;DHT22;8120;48.308;8.914;2023-04-15T08:37:05;9.80;58.20
16032;DHT22;8120;48.308;8.914;2023-04-15T08:39:33;10.20;57.40
16032;DHT22;8120;48.308;8.914;2023-04-15T08:42:02;10.40;56.40
16032;DHT22;8120;48.308;8.914;2023-04-15T08:44:33;10.90;54.80
16032;DHT22;8120;48.308;8.914;2023-04-15T08:47:03;10.40;55.80
16032;DHT22;8120;48.308;8.914;2023-04-15T08:49:36;10.60;55.70
16032;DHT22;8120;48.308;8.914;2023-04-15T08:52:07;10.90;56.00
16032;DHT22;8120;48.308;8.914;2023-04-15T08:54:36;11.10;54.60
16032;DHT22;8120;48.308;8.914;2023-04-15T08:57:05;11.20;53.80
16032;DHT22;8120;48.308;8.914;2023-04-15T08:59:33;11.50;53.00
16032;DHT22;8120;48.308;8.914;2023-04-15T09:02:03;11.80;53.10
16032;DHT22;8120;48.308;8.914;2023-04-15T09:04:31;11.00;53.70
16032;DHT22;8120;48.308;8.914;2023-04-15T09:06:59;11.00;54.00
16032;DHT22;8120;48.308;8.914;2023-04-15T09:09:29;11.10;53.10
16032;DHT22;8120;48.308;8.914;2023-04-15T09:11:56;11.10;50.50
16032;DHT22;8120;48.308;8.914;2023-04-15T09:14:24;11.50;50.90
16032;DHT22;8120;48.308;8.914;2023-04-15T09:16:55;11.80;47.60
16032;DHT22;8120;48.308;8.914;2023-04-15T09:19:24;11.40;49.00
16032;DHT22;8120;48.308;8.914;2023-04-15T09:21:53;11.70;48.90
16032;DHT22;8120;48.308;8.914;2023-04-15T09:24:25;11.80;48.30
16032;DHT22;8120;48.308;8.914;2023-04-15T09:27:02;12.00;47.40
16032;DHT22;8120;48.308;8.914;2023-04-15T09:29:30;11.80;47.70
16032;DHT22;8120;48.308;8.914;2023-04-15T09:32:08;12.10;50.30
16032;DHT22;8120;48.308;8.914;2023-04-15T09:34:36;12.30;49.40
16032;DHT22;8120;48.308;8.914;2023-04-15T09:37:04;12.40;49.30
16032;DHT22;8120;48.308;8.914;2023-04-15T09:39:49;11.90;48.30
16032;DHT22;8120;48.308;8.914;2023-04-15T09:42:18;11.80;48.40
16032;DHT22;8120;48.308;8.914;2023-04-15T09:44:50;12.00;48.70
16032;DHT22;8120;48.308;8.914;2023-04-15T09:47:28;12.00;46.40
16032;DHT22;8120;48.308;8.914;2023-04-15T09:49:57;12.00;46.10
16032;DHT22;8120;48.308;8.914;2023-04-15T09:52:26;12.00;43.70
16032;DHT22;8120;48.308;8.914;2023-04-15T09:54:56;12.10;44.90
16032;DHT22;8120;48.308;8.914;2023-04-15T09:57:33;11.80;42.20
16032;DHT22;8120;48.308;8.914;2023-04-15T10:00:02;11.80;43.80
16032;DHT22;8120;48.308;8.914;2023-04-15T10:02:31;11.90;45.50
16032;DHT22;8120;48.308;8.914;2023-04-15T10:04:59;11.90;45.10
16032;DHT22;8120;48.308;8.914;2023-04-15T10:07:28;12.10;44.40
16032;DHT22;8120;48.308;8.914;2023-04-15T10:09:59;12.20;43.60
16032;DHT22;8120;48.308;8.914;2023-04-15T10:12:30;12.30;44.00
16032;DHT22;8120;48.308;8.914;2023-04-15T10:15:03;12.70;43.70
16032;DHT22;8120;48.308;8.914;2023-04-15T10:17:32;13.00;42.90
16032;DHT22;8120;48.308;8.914;2023-04-15T10:20:02;13.20;41.40
16032;DHT22;8120;48.308;8.914;2023-04-15T10:22:31;13.30;41.90
16032;DHT22;8120;48.308;8.914;2023-04-15T10:24:59;12.70;42.80
16032;DHT22;8120;48.308;8.914;2023-04-15T10:27:31;13.00;41.30
16032;DHT22;8120;48.308;8.914;2023-04-15T10:30:00;13.30;39.60
16032;DHT22;8120;48.308;8.914;2023-04-15T10:32:29;13.20;38.90
16032;DHT22;8120;48.308;8.914;2023-04-15T10:34:58;13.10;40.70
16032;DHT22;8120;48.308;8.914;2023-04-15T10:37:33;12.70;39.60
16032;DHT22;8120;48.308;8.914;2023-04-15T10:40:23;12.50;40.30
16032;DHT22;8120;48.308;8.914;2023-04-15T10:42:53;12.70;40.80
16032;DHT22;8120;48.308;8.914;2023-04-15T10:45:21;13.20;39.50
16032;DHT22;8120;48.308;8.914;2023-04-15T10:47:54;13.20;39.30
16032;DHT22;8120;48.308;8.914;2023-04-15T10:50:25;13.10;40.00
16032;DHT22;8120;48.308;8.914;2023-04-15T10:52:53;12.90;39.70
16032;DHT22;8120;48.308;8.914;2023-04-15T10:55:23;12.50;40.80
16032;DHT22;8120;48.308;8.914;2023-04-15T10:57:55;12.20;40.50
16032;DHT22;8120;48.308;8.914;2023-04-15T11:00:28;12.40;41.10
16032;DHT22;8120;48.308;8.914;2023-04-15T11:02:57;12.20;41.20
16032;DHT22;8120;48.308;8.914;2023-04-15T11:05:50;12.60;40.90
16032;DHT22;8120;48.308;8.914;2023-04-15T11:08:19;12.10;43.20
16032;DHT22;8120;48.308;8.914;2023-04-15T11:10:51;12.20;41.40
16032;DHT22;8120;48.308;8.914;2023-04-15T11:13:31;12.20;41.10
16032;DHT22;8120;48.308;8.914;2023-04-15T11:16:00;12.10;40.70
16032;DHT22;8120;48.308;8.914;2023-04-15T11:18:31;12.10;40.50
16032;DHT22;8120;48.308;8.914;2023-04-15T11:21:01;12.30;41.10
16032;DHT22;8120;48.308;8.914;2023-04-15T11:23:35;12.90;39.00
16032;DHT22;8120;48.308;8.914;2023-04-15T11:26:05;12.30;39.40
16032;DHT22;8120;48.308;8.914;2023-04-15T11:28:37;12.40;39.50
16032;DHT22;8120;48.308;8.914;2023-04-15T11:31:08;12.50;38.80
16032;DHT22;8120;48.308;8.914;2023-04-15T11:33:44;12.60;39.40
16032;DHT22;8120;48.308;8.914;2023-04-15T11:36:13;12.80;39.40
16032;DHT22;8120;48.308;8.914;2023-04-15T11:38:45;12.70;40.20
16032;DHT22;8120;48.308;8.914;2023-04-15T11:41:13;12.80;38.90
16032;DHT22;8120;48.308;8.914;2023-04-15T11:43:43;13.10;40.10
16032;DHT22;8120;48.308;8.914;2023-04-15T11:46:11;12.40;40.00
16032;DHT22;8120;48.308;8.914;2023-04-15T11:48:41;12.70;39.50
16032;DHT22;8120;48.308;8.914;2023-04-15T11:51:10;13.20;39.20
16032;DHT22;8120;48.308;8.914;2023-04-15T11:53:42;13.40;39.90
16032;DHT22;8120;48.308;8.914;2023-04-15T11:56:19;12.80;39.80
16032;DHT22;8120;48.308;8.914;2023-04-15T11:58:51;12.80;39.40
16032;DHT22;8120;48.308;8.914;2023-04-15T12:01:19;12.90;39.00
16032;DHT22;8120;48.308;8.914;2023-04-15T12:03:48;12.60;40.70
16032;DHT22;8120;48.308;8.914;2023-04-15T12:06:18;12.30;41.60
16032;DHT22;8120;48.308;8.914;2023-04-15T12:08:56;12.80;41.00
16032;DHT22;8120;48.308;8.914;2023-04-15T12:11:30;13.00;39.90
16032;DHT22;8120;48.308;8.914;2023-04-15T12:14:05;13.10;40.20
16032;DHT22;8120;48.308;8.914;2023-04-15T12:16:34;13.10;40.30
16032;DHT22;8120;48.308;8.914;2023-04-15T12:19:16;12.90;40.10
16032;DHT22;8120;48.308;8.914;2023-04-15T12:21:46;13.00;41.70
16032;DHT22;8120;48.308;8.914;2023-04-15T12:24:14;12.90;41.10
16032;DHT22;8120;48.308;8.914;2023-04-15T12:26:44;12.60;41.70
16032;DHT22;8120;48.308;8.914;2023-04-15T12:29:14;12.50;42.60
16032;DHT22;8120;48.308;8.914;2023-04-15T12:31:48;12.40;41.30
16032;DHT22;8120;48.308;8.914;2023-04-15T12:34:17;12.60;40.30
16032;DHT22;8120;48.308;8.914;2023-04-15T12:36:46;12.40;40.90
16032;DHT22;8120;48.308;8.914;2023-04-15T12:39:14;12.30;42.10
16032;DHT22;8120;48.308;8.914;2023-04-15T12:41:42;12.60;41.10
16032;DHT22;8120;48.308;8.914;2023-04-15T12:44:10;12.90;40.20
16032;DHT22;8120;48.308;8.914;2023-04-15T12:46:39;12.40;39.70
16032;DHT22;8120;48.308;8.914;2023-04-15T12:49:08;12.80;39.00
16032;DHT22;8120;48.308;8.914;2023-04-15T12:51:36;12.60;38.90
16032;DHT22;8120;48.308;8.914;2023-04-15T12:54:04;12.60;39.00
16032;DHT22;8120;48.308;8.914;2023-04-15T12:56:32;12.50;38.70
16032;DHT22;8120;48.308;8.914;2023-04-15T12:59:00;12.70;39.30
16032;DHT22;8120;48.308;8.914;2023-04-15T13:01:28;12.90;40.70
16032;DHT22;8120;48.308;8.914;2023-04-15T13:03:57;13.20;41.00
16032;DHT22;8120;48.308;8.914;2023-04-15T13:06:25;13.10;39.80
16032;DHT22;8120;48.308;8.914;2023-04-15T13:08:54;12.90;41.20
16032;DHT22;8120;48.308;8.914;2023-04-15T13:11:24;12.40;41.10
16032;DHT22;8120;48.308;8.914;2023-04-15T13:13:52;12.10;42.00
16032;DHT22;8120;48.308;8.914;2023-04-15T13:16:22;12.10;42.50
16032;DHT22;8120;48.308;8.914;2023-04-15T13:18:50;12.30;42.00
16032;DHT22;8120;48.308;8.914;2023-04-15T13:21:19;12.50;42.00
16032;DHT22;8120;48.308;8.914;2023-04-15T13:23:47;12.60;42.50
16032;DHT22;8120;48.308;8.914;2023-04-15T13:26:16;12.80;41.60
16032;DHT22;8120;48.308;8.914;2023-04-15T13:28:45;12.80;38.90
16032;DHT22;8120;48.308;8.914;2023-04-15T13:31:12;12.60;39.80
16032;DHT22;8120;48.308;8.914;2023-04-15T13:33:40;13.10;40.60
16032;DHT22;8120;48.308;8.914;2023-04-15T13:36:08;12.90;40.20
16032;DHT22;8120;48.308;8.914;2023-04-15T13:38:37;12.80;41.10
16032;DHT22;8120;48.308;8.914;2023-04-15T13:41:05;12.50;41.20
16032;DHT22;8120;48.308;8.914;2023-04-15T13:43:33;12.20;42.80
16032;DHT22;8120;48.308;8.914;2023-04-15T13:46:01;12.10;43.20
16032;DHT22;8120;48.308;8.914;2023-04-15T13:48:29;11.80;44.20
16032;DHT22;8120;48.308;8.914;2023-04-15T13:50:57;11.70;44.10
16032;DHT22;8120;48.308;8.914;2023-04-15T13:53:25;11.80;44.20
16032;DHT22;8120;48.308;8.914;2023-04-15T13:56:07;12.00;43.50
16032;DHT22;8120;48.308;8.914;2023-04-15T13:58:35;12.10;43.40
16032;DHT22;8120;48.308;8.914;2023-04-15T14:01:04;12.20;43.10
16032;DHT22;8120;48.308;8.914;2023-04-15T14:03:33;12.40;42.70
16032;DHT22;8120;48.308;8.914;2023-04-15T14:06:03;12.50;42.80
16032;DHT22;8120;48.308;8.914;2023-04-15T14:08:31;12.40;40.30
16032;DHT22;8120;48.308;8.914;2023-04-15T14:10:59;12.00;40.10
16032;DHT22;8120;48.308;8.914;2023-04-15T14:13:29;12.00;39.60
16032;DHT22;8120;48.308;8.914;2023-04-15T14:15:57;12.10;40.10
16032;DHT22;8120;48.308;8.914;2023-04-15T14:18:24;12.30;40.20
16032;DHT22;8120;48.308;8.914;2023-04-15T14:20:52;12.10;41.50
16032;DHT22;8120;48.308;8.914;2023-04-15T14:23:20;12.20;41.80
16032;DHT22;8120;48.308;8.914;2023-04-15T14:25:49;12.20;42.20
16032;DHT22;8120;48.308;8.914;2023-04-15T14:28:17;12.50;42.30
16032;DHT22;8120;48.308;8.914;2023-04-15T14:30:46;12.20;42.50
16032;DHT22;8120;48.308;8.914;2023-04-15T14:33:14;12.30;40.60
16032;DHT22;8120;48.308;8.914;2023-04-15T14:35:42;11.90;41.30
16032;DHT22;8120;48.308;8.914;2023-04-15T14:38:10;11.80;42.50
16032;DHT22;8120;48.308;8.914;2023-04-15T14:40:40;11.80;42.90
16032;DHT22;8120;48.308;8.914;2023-04-15T14:43:08;11.90;44.10
16032;DHT22;8120;48.308;8.914;2023-04-15T14:45:36;11.50;44.70
16032;DHT22;8120;48.308;8.914;2023-04-15T14:48:10;11.50;44.40
16032;DHT22;8120;48.308;8.914;2023-04-15T14:50:39;11.30;44.70
16032;DHT22;8120;48.308;8.914;2023-04-15T14:53:07;11.10;45.70
16032;DHT22;8120;48.308;8.914;2023-04-15T14:55:34;10.90;46.10
16032;DHT22;8120;48.308;8.914;2023-04-15T14:58:02;11.00;46.30
16032;DHT22;8120;48.308;8.914;2023-04-15T15:00:30;11.00;46.60
16032;DHT22;8120;48.308;8.914;2023-04-15T15:02:58;11.10;46.50
16032;DHT22;8120;48.308;8.914;2023-04-15T15:05:28;11.30;45.60
16032;DHT22;8120;48.308;8.914;2023-04-15T15:07:56;11.50;45.70
16032;DHT22;8120;48.308;8.914;2023-04-15T15:10:24;11.40;47.20
16032;DHT22;8120;48.308;8.914;2023-04-15T15:13:12;11.20;47.30
16032;DHT22;8120;48.308;8.914;2023-04-15T15:15:40;11.10;47.60
16032;DHT22;8120;48.308;8.914;2023-04-15T15:18:09;11.00;47.80
16032;DHT22;8120;48.308;8.914;2023-04-15T15:20:38;10.80;48.30
16032;DHT22;8120;48.308;8.914;2023-04-15T15:23:06;10.50;48.30
16032;DHT22;8120;48.308;8.914;2023-04-15T15:25:34;10.40;48.70
16032;DHT22;8120;48.308;8.914;2023-04-15T15:28:02;10.30;48.40
16032;DHT22;8120;48.308;8.914;2023-04-15T15:30:30;10.20;48.60
16032;DHT22;8120;48.308;8.914;2023-04-15T15:32:57;10.20;45.60
16032;DHT22;8120;48.308;8.914;2023-04-15T15:35:25;10.20;46.50
16032;DHT22;8120;48.308;8.914;2023-04-15T15:37:55;10.20;48.00
16032;DHT22;8120;48.308;8.914;2023-04-15T15:40:22;10.10;48.60
16032;DHT22;8120;48.308;8.914;2023-04-15T15:42:51;10.20;48.90
16032;DHT22;8120;48.308;8.914;2023-04-15T15:45:19;10.20;48.10
16032;DHT22;8120;48.308;8.914;2023-04-15T15:47:47;10.20;47.70
16032;DHT22;8120;48.308;8.914;2023-04-15T15:50:15;10.10;48.00
16032;DHT22;8120;48.308;8.914;2023-04-15T15:52:43;10.00;48.80
16032;DHT22;8120;48.308;8.914;2023-04-15T15:55:12;10.00;49.80
16032;DHT22;8120;48.308;8.914;2023-04-15T15:57:40;10.00;48.50
16032;DHT22;8120;48.308;8.914;2023-04-15T16:00:09;10.00;48.50
16032;DHT22;8120;48.308;8.914;2023-04-15T16:02:38;10.00;48.90